createdAt,value
2022-10-09T00:01:28.251Z,87.22
2022-10-09T00:03:57.970Z,87.18
2022-10-09T00:06:35.001Z,87.83
2022-10-09T00:09:04.279Z,88.01
2022-10-09T00:11:34.136Z,88.03
2022-10-09T00:14:03.207Z,88.07
2022-10-09T00:16:31.123Z,87.98
2022-10-09T00:18:59.263Z,87.91
2022-10-09T00:21:31.572Z,87.92
2022-10-09T00:24:03.517Z,87.82
2022-10-09T00:26:31.839Z,87.84
2022-10-09T00:28:59.698Z,87.93
2022-10-09T00:31:27.506Z,87.87
2022-10-09T00:33:55.599Z,88.17
2022-10-09T00:36:25.978Z,88.46
2022-10-09T00:38:55.206Z,88.58
2022-10-09T00:41:29.992Z,88.45
2022-10-09T00:44:04.510Z,88.59
2022-10-09T00:46:45.928Z,88.79
2022-10-09T00:49:29.053Z,88.92
2022-10-09T00:52:06.103Z,88.85
2022-10-09T00:54:38.427Z,88.89
2022-10-09T00:57:06.685Z,89.12
2022-10-09T00:59:35.513Z,89.42
2022-10-09T01:02:03.094Z,89.53
2022-10-09T01:04:31.308Z,89.54
2022-10-09T01:07:22.500Z,89.65
2022-10-09T01:10:28.049Z,89.84
2022-10-09T01:13:09.071Z,90.22
2022-10-09T01:16:06.077Z,90.72
2022-10-09T01:18:48.702Z,91.09
2022-10-09T01:21:37.147Z,91.27
2022-10-09T01:24:38.707Z,91.06
2022-10-09T01:27:25.144Z,91.37
2022-10-09T01:30:04.290Z,91.64
2022-10-09T01:32:37.753Z,91.99
2022-10-09T01:35:08.982Z,92.05
2022-10-09T01:37:40.494Z,92.21
2022-10-09T01:40:11.040Z,92.10
2022-10-09T01:42:38.948Z,92.09
2022-10-09T01:45:07.471Z,92.04
2022-10-09T01:47:35.053Z,92.10
2022-10-09T01:50:20.852Z,91.95
2022-10-09T01:52:52.404Z,91.83
2022-10-09T01:55:46.127Z,92.05
2022-10-09T01:58:22.539Z,92.13
2022-10-09T02:01:04.248Z,92.11
2022-10-09T02:03:35.364Z,92.36
2022-10-09T02:06:06.743Z,92.47
2022-10-09T02:08:38.134Z,92.70
2022-10-09T02:11:06.703Z,92.92
2022-10-09T02:13:36.541Z,92.80
2022-10-09T02:16:41.283Z,92.71
2022-10-09T02:19:28.624Z,92.41
2022-10-09T02:22:20.037Z,92.18
2022-10-09T02:24:48.123Z,92.09
2022-10-09T02:27:18.778Z,91.98
2022-10-09T02:29:47.611Z,92.36
2022-10-09T02:32:16.579Z,92.25
2022-10-09T02:34:44.672Z,92.34
2022-10-09T02:37:12.674Z,92.40
2022-10-09T02:39:40.946Z,92.35
2022-10-09T02:42:08.402Z,92.49
2022-10-09T02:44:36.418Z,92.47
2022-10-09T02:47:04.024Z,92.55
2022-10-09T02:49:31.481Z,92.70
2022-10-09T02:51:59.003Z,93.03
2022-10-09T02:54:26.531Z,93.19
2022-10-09T02:56:54.022Z,93.14
2022-10-09T02:59:21.615Z,93.16
2022-10-09T03:01:49.193Z,93.17
2022-10-09T03:04:16.843Z,93.07
2022-10-09T03:06:45.170Z,93.08
2022-10-09T03:09:12.559Z,93.00
2022-10-09T03:11:40.060Z,92.98
2022-10-09T03:14:07.639Z,92.84
2022-10-09T03:16:35.357Z,92.84
2022-10-09T03:19:03.072Z,92.53
2022-10-09T03:21:30.586Z,92.37
2022-10-09T03:23:58.143Z,92.34
2022-10-09T03:26:28.096Z,92.40
2022-10-09T03:28:56.339Z,92.37
2022-10-09T03:34:13.830Z,92.49
2022-10-09T03:36:42.335Z,92.54
2022-10-09T03:39:10.366Z,92.64
2022-10-09T03:41:37.858Z,92.93
2022-10-09T03:44:05.483Z,93.01
2022-10-09T03:46:33.001Z,92.69
2022-10-09T03:49:00.577Z,92.40
2022-10-09T03:51:28.382Z,92.13
2022-10-09T03:53:55.828Z,91.94
2022-10-09T03:56:23.333Z,91.77
2022-10-09T03:58:51.065Z,91.55
2022-10-09T04:01:18.704Z,91.38
2022-10-09T04:03:46.230Z,91.29
2022-10-09T04:06:13.815Z,91.25
2022-10-09T04:08:41.289Z,91.02
2022-10-09T04:11:08.791Z,90.85
2022-10-09T04:13:36.290Z,90.40
2022-10-09T04:16:03.901Z,90.37
2022-10-09T04:18:31.414Z,89.92
2022-10-09T04:20:58.916Z,89.75
2022-10-09T04:23:28.070Z,89.56
2022-10-09T04:26:01.113Z,89.34
2022-10-09T04:28:31.674Z,89.31
2022-10-09T04:30:59.593Z,89.44
2022-10-09T04:33:27.730Z,89.50
2022-10-09T04:35:56.929Z,89.40
2022-10-09T04:38:25.031Z,89.25
2022-10-09T04:41:00.980Z,88.98
2022-10-09T04:43:29.436Z,88.72
2022-10-09T04:45:57.605Z,88.73
2022-10-09T04:48:26.141Z,88.41
2022-10-09T04:50:53.622Z,88.49
2022-10-09T04:53:21.114Z,88.92
2022-10-09T04:55:48.695Z,89.24
2022-10-09T04:58:16.169Z,89.34
2022-10-09T05:00:46.407Z,89.31
2022-10-09T05:03:14.003Z,89.49
2022-10-09T05:05:41.641Z,89.41
2022-10-09T05:08:09.228Z,89.56
2022-10-09T05:10:36.931Z,89.48
2022-10-09T05:13:04.680Z,89.43
2022-10-09T05:15:35.808Z,89.43
2022-10-09T05:18:03.317Z,89.43
2022-10-09T05:20:30.854Z,89.30
2022-10-09T05:22:58.309Z,89.19
2022-10-09T05:25:25.948Z,89.15
2022-10-09T05:27:53.387Z,88.86
2022-10-09T05:30:20.857Z,88.56
2022-10-09T05:32:48.625Z,88.21
2022-10-09T05:35:16.400Z,88.01
2022-10-09T05:37:46.760Z,87.66
2022-10-09T05:40:14.322Z,87.40
2022-10-09T05:42:41.894Z,86.84
2022-10-09T05:45:10.875Z,86.55
2022-10-09T05:47:38.339Z,85.47
2022-10-09T05:50:06.306Z,85.39
2022-10-09T05:52:35.785Z,85.09
2022-10-09T05:55:03.743Z,84.69
2022-10-09T05:57:31.178Z,83.81
2022-10-09T05:59:58.626Z,83.59
2022-10-09T06:02:26.153Z,83.17
2022-10-09T06:04:53.742Z,82.96
2022-10-09T06:07:21.233Z,82.49
2022-10-09T06:09:48.754Z,82.77
2022-10-09T06:12:16.299Z,82.42
2022-10-09T06:14:43.755Z,81.85
2022-10-09T06:17:11.223Z,81.60
2022-10-09T06:19:38.707Z,79.11
2022-10-09T06:22:06.185Z,77.03
2022-10-09T06:24:33.679Z,74.62
2022-10-09T06:27:01.227Z,70.26
2022-10-09T06:29:30.120Z,68.68
2022-10-09T06:31:57.593Z,69.61
2022-10-09T06:34:25.349Z,67.61
2022-10-09T06:36:52.887Z,58.89
2022-10-09T06:39:20.471Z,56.59
2022-10-09T06:41:48.246Z,52.68
2022-10-09T06:44:38.883Z,50.92
2022-10-09T06:47:06.278Z,49.84
2022-10-09T06:49:33.502Z,52.05
2022-10-09T06:52:00.731Z,50.74
2022-10-09T06:54:27.939Z,51.51
2022-10-09T06:56:55.665Z,55.50
2022-10-09T06:59:23.121Z,56.20
2022-10-09T07:01:50.563Z,56.08
2022-10-09T07:04:18.788Z,53.53
2022-10-09T07:06:49.642Z,56.85
2022-10-09T07:09:17.165Z,57.52
2022-10-09T07:11:46.538Z,55.00
2022-10-09T07:14:15.980Z,50.51
2022-10-09T07:16:47.188Z,48.82
2022-10-09T07:19:17.495Z,49.14
2022-10-09T07:21:48.682Z,49.55
2022-10-09T07:24:17.628Z,49.91
2022-10-09T07:26:47.050Z,51.77
2022-10-09T07:29:17.112Z,50.02
2022-10-09T07:31:44.965Z,49.79
2022-10-09T07:34:12.498Z,49.91
2022-10-09T07:36:40.042Z,48.64
2022-10-09T07:39:07.739Z,45.29
2022-10-09T07:41:35.798Z,44.03
2022-10-09T07:44:03.357Z,44.53
2022-10-09T07:46:33.735Z,45.46
2022-10-09T07:49:03.069Z,44.87
2022-10-09T07:51:32.171Z,46.47
2022-10-09T07:54:02.021Z,48.73
2022-10-09T07:56:35.768Z,47.47
2022-10-09T07:59:06.637Z,47.60
2022-10-09T08:01:35.831Z,47.83
2022-10-09T08:04:04.474Z,45.47
2022-10-09T08:06:32.924Z,45.02
2022-10-09T08:09:02.161Z,44.98
2022-10-09T08:11:30.845Z,42.39
2022-10-09T08:13:59.009Z,42.01
2022-10-09T08:16:28.176Z,42.10
2022-10-09T08:19:01.284Z,44.46
2022-10-09T08:21:29.687Z,46.82
2022-10-09T08:23:59.158Z,50.37
2022-10-09T08:26:30.070Z,51.97
2022-10-09T08:29:05.849Z,51.99
2022-10-09T08:31:33.342Z,51.44
2022-10-09T08:34:01.523Z,48.63
2022-10-09T08:36:29.559Z,48.16
2022-10-09T08:38:57.415Z,46.34
2022-10-09T08:41:43.585Z,48.49
2022-10-09T08:44:31.886Z,48.82
2022-10-09T08:47:18.732Z,50.44
2022-10-09T08:50:15.785Z,50.11
2022-10-09T08:53:24.029Z,50.84
2022-10-09T08:56:01.431Z,48.90
2022-10-09T08:58:36.634Z,48.88
2022-10-09T09:01:58.123Z,46.09
2022-10-09T09:04:54.955Z,47.22
2022-10-09T09:07:48.128Z,49.75
2022-10-09T09:10:49.573Z,51.05
2022-10-09T09:13:39.935Z,51.28
2022-10-09T09:16:54.182Z,51.20
2022-10-09T09:19:53.647Z,44.44
2022-10-09T09:22:24.511Z,40.59
2022-10-09T09:24:56.102Z,38.07
2022-10-09T09:27:36.802Z,39.53
2022-10-09T09:30:18.272Z,41.89
2022-10-09T09:33:03.878Z,42.45
2022-10-09T09:36:15.755Z,41.33
2022-10-09T09:39:12.603Z,41.68
2022-10-09T09:41:30.786Z,40.73
2022-10-09T09:43:58.347Z,41.46
2022-10-09T09:46:30.398Z,41.77
2022-10-09T09:48:57.936Z,42.89
2022-10-09T09:51:32.087Z,39.71
2022-10-09T09:54:22.715Z,36.81
2022-10-09T09:59:44.267Z,35.59
2022-10-09T10:02:18.734Z,35.99
2022-10-09T10:05:01.204Z,36.65
2022-10-09T10:07:33.931Z,33.88
2022-10-09T10:10:07.142Z,34.80
2022-10-09T10:12:42.153Z,37.97
2022-10-09T10:15:32.485Z,39.13
2022-10-09T10:18:11.992Z,39.86
2022-10-09T10:20:54.175Z,39.56
2022-10-09T10:23:35.341Z,41.18
2022-10-09T10:26:26.831Z,41.96
2022-10-09T10:29:23.599Z,39.47
2022-10-09T10:31:53.556Z,37.45
2022-10-09T10:34:29.886Z,36.96
2022-10-09T10:37:13.776Z,36.99
2022-10-09T10:39:56.915Z,35.33
2022-10-09T10:43:02.890Z,35.55
2022-10-09T10:46:00.446Z,33.83
2022-10-09T10:48:33.275Z,34.78
2022-10-09T10:51:40.920Z,34.19
2022-10-09T10:54:37.585Z,37.73
2022-10-09T10:57:16.874Z,39.87
2022-10-09T11:00:13.018Z,38.58
2022-10-09T11:03:14.101Z,38.73
2022-10-09T11:06:12.505Z,41.77
2022-10-09T11:09:01.459Z,42.18
2022-10-09T11:11:42.961Z,44.02
2022-10-09T11:14:48.143Z,47.53
2022-10-09T11:17:43.572Z,51.07
2022-10-09T11:20:37.400Z,52.48
2022-10-09T11:23:31.968Z,53.47
2022-10-09T11:26:33.780Z,53.22
2022-10-09T11:29:15.164Z,53.02
2022-10-09T11:32:11.755Z,52.40
2022-10-09T11:34:46.597Z,51.69
2022-10-09T11:37:23.635Z,48.21
2022-10-09T11:39:51.668Z,48.88
2022-10-09T11:42:25.726Z,47.92
2022-10-09T11:45:07.933Z,49.70
2022-10-09T11:48:04.594Z,47.37
2022-10-09T11:51:07.060Z,47.46
2022-10-09T11:53:37.029Z,49.00
2022-10-09T11:56:09.007Z,46.28
2022-10-09T11:58:36.570Z,44.99
2022-10-09T12:01:24.402Z,43.75
2022-10-09T12:04:37.477Z,44.42
2022-10-09T12:07:12.570Z,44.14
2022-10-09T12:09:45.059Z,44.95
2022-10-09T12:12:15.594Z,47.08
2022-10-09T12:14:47.636Z,49.68
2022-10-09T12:17:35.654Z,51.89
2022-10-09T12:20:20.321Z,53.96
2022-10-09T12:23:24.728Z,54.77
2022-10-09T12:25:46.429Z,54.73
2022-10-09T12:28:24.212Z,54.58
2022-10-09T12:30:52.645Z,53.26
2022-10-09T12:33:27.821Z,54.18
2022-10-09T12:36:14.739Z,55.05
2022-10-09T12:38:43.427Z,55.23
2022-10-09T12:41:34.104Z,54.56
2022-10-09T12:44:25.865Z,52.92
2022-10-09T12:46:53.925Z,52.44
2022-10-09T12:49:25.635Z,51.59
2022-10-09T12:51:57.337Z,51.82
2022-10-09T12:54:28.094Z,50.51
2022-10-09T12:58:55.051Z,51.84
2022-10-09T13:01:24.044Z,51.28
2022-10-09T13:03:59.930Z,51.59
2022-10-09T13:06:46.336Z,53.28
2022-10-09T13:09:37.140Z,52.23
2022-10-09T13:12:22.615Z,52.16
2022-10-09T13:14:56.454Z,52.92
2022-10-09T13:17:37.241Z,52.97
2022-10-09T13:20:16.934Z,54.44
2022-10-09T13:22:56.222Z,55.75
2022-10-09T13:25:33.500Z,54.50
2022-10-09T13:28:03.231Z,54.33
2022-10-09T13:30:31.318Z,54.56
2022-10-09T13:32:59.379Z,54.44
2022-10-09T13:35:26.944Z,55.43
2022-10-09T13:37:54.424Z,56.68
2022-10-09T13:40:22.335Z,56.67
2022-10-09T13:42:55.669Z,57.68
2022-10-09T13:45:23.815Z,58.58
2022-10-09T13:47:51.870Z,58.70
2022-10-09T13:50:19.959Z,59.09
2022-10-09T13:52:47.572Z,59.67
2022-10-09T13:55:15.739Z,59.82
2022-10-09T13:57:43.285Z,60.53
2022-10-09T14:00:11.751Z,60.65
2022-10-09T14:02:41.993Z,61.10
2022-10-09T14:05:09.734Z,61.74
2022-10-09T14:07:37.242Z,62.22
2022-10-09T14:10:05.943Z,61.97
2022-10-09T14:12:33.558Z,62.54
2022-10-09T14:15:01.014Z,63.17
2022-10-09T14:17:28.514Z,63.79
2022-10-09T14:19:56.059Z,63.98
2022-10-09T14:22:23.599Z,64.34
2022-10-09T14:24:51.079Z,64.20
2022-10-09T14:27:18.718Z,64.06
2022-10-09T14:29:47.414Z,63.80
2022-10-09T14:32:14.998Z,63.62
2022-10-09T14:34:42.446Z,63.66
2022-10-09T14:37:23.764Z,63.67
2022-10-09T14:39:58.060Z,64.08
2022-10-09T14:42:25.532Z,63.97
2022-10-09T14:44:54.146Z,63.72
2022-10-09T14:47:21.592Z,64.21
2022-10-09T14:49:49.067Z,64.63
2022-10-09T14:52:16.534Z,64.46
2022-10-09T14:54:43.970Z,64.38
2022-10-09T14:57:11.471Z,65.04
2022-10-09T14:59:38.923Z,65.09
2022-10-09T15:02:10.077Z,65.48
2022-10-09T15:04:37.546Z,65.69
2022-10-09T15:07:05.035Z,65.82
2022-10-09T15:09:32.490Z,66.43
2022-10-09T15:12:00.039Z,66.54
2022-10-09T15:14:27.557Z,66.63
2022-10-09T15:16:55.047Z,67.87
2022-10-09T15:19:22.526Z,68.44
2022-10-09T15:21:49.995Z,69.00
2022-10-09T15:24:17.453Z,69.18
2022-10-09T15:26:44.943Z,69.59
2022-10-09T15:29:12.399Z,69.89
2022-10-09T15:31:41.379Z,70.26
2022-10-09T15:34:16.576Z,71.49
2022-10-09T15:36:45.857Z,71.55
2022-10-09T15:39:13.905Z,72.16
2022-10-09T15:41:43.321Z,72.82
2022-10-09T15:44:20.292Z,73.72
2022-10-09T15:46:49.154Z,73.82
2022-10-09T15:49:17.095Z,73.70
2022-10-09T15:51:44.830Z,74.60
2022-10-09T15:54:14.364Z,74.66
2022-10-09T15:56:42.311Z,75.05
2022-10-09T15:59:14.153Z,75.49
2022-10-09T16:01:41.746Z,76.16
2022-10-09T16:04:09.729Z,76.72
2022-10-09T16:06:37.686Z,77.59
2022-10-09T16:09:05.330Z,78.25
2022-10-09T16:11:34.572Z,78.29
2022-10-09T16:14:02.362Z,78.85
2022-10-09T16:16:30.400Z,79.18
2022-10-09T16:18:58.334Z,79.42
2022-10-09T16:21:28.821Z,79.70
2022-10-09T16:23:59.414Z,80.42
2022-10-09T16:26:29.607Z,80.97
2022-10-09T16:29:00.059Z,81.30
2022-10-09T16:31:34.605Z,82.11
2022-10-09T16:34:05.490Z,82.17
2022-10-09T16:36:34.151Z,82.65
2022-10-09T16:39:01.706Z,83.08
2022-10-09T16:41:29.557Z,83.67
2022-10-09T16:43:57.933Z,84.11
2022-10-09T16:49:03.163Z,84.52
2022-10-09T16:51:36.281Z,84.57
2022-10-09T16:54:06.106Z,84.94
2022-10-09T16:56:37.916Z,85.04
2022-10-09T16:59:10.876Z,84.78
2022-10-09T17:01:43.591Z,84.55
2022-10-09T17:04:13.137Z,84.59
2022-10-09T17:06:43.794Z,84.53
2022-10-09T17:09:14.346Z,84.70
2022-10-09T17:11:43.508Z,85.19
2022-10-09T17:14:12.123Z,85.46
2022-10-09T17:16:41.693Z,85.69
2022-10-09T17:19:09.391Z,85.75
2022-10-09T17:21:37.116Z,85.76
2022-10-09T17:24:06.405Z,85.83
2022-10-09T17:26:34.983Z,86.06
2022-10-09T17:29:03.157Z,86.20
2022-10-09T17:31:30.736Z,86.09
2022-10-09T17:34:03.163Z,85.92
2022-10-09T17:36:38.066Z,86.14
2022-10-09T17:39:09.462Z,86.43
2022-10-09T17:41:37.147Z,86.62
2022-10-09T17:44:05.333Z,86.68
2022-10-09T17:46:33.151Z,86.63
2022-10-09T17:49:01.037Z,86.87
2022-10-09T17:51:36.032Z,86.89
2022-10-09T17:54:11.707Z,87.12
2022-10-09T17:56:41.186Z,87.68
2022-10-09T17:59:09.391Z,87.90
2022-10-09T18:01:39.654Z,88.13
2022-10-09T18:04:07.333Z,87.85
2022-10-09T18:06:35.603Z,87.67
2022-10-09T18:09:03.933Z,87.99
2022-10-09T18:11:31.608Z,88.34
2022-10-09T18:14:01.885Z,88.30
2022-10-09T18:16:36.807Z,88.51
2022-10-09T18:19:15.059Z,89.24
2022-10-09T18:21:49.176Z,89.17
2022-10-09T18:24:17.831Z,89.30
2022-10-09T18:26:45.461Z,89.41
2022-10-09T18:29:12.933Z,89.60
2022-10-09T18:31:40.530Z,89.61
2022-10-09T18:34:09.660Z,89.92
2022-10-09T18:36:37.837Z,90.21
2022-10-09T18:39:10.183Z,90.16
2022-10-09T18:41:38.187Z,90.30
2022-10-09T18:44:12.597Z,90.39
2022-10-09T18:46:48.447Z,90.49
2022-10-09T18:49:21.058Z,90.47
2022-10-09T18:51:49.532Z,90.63
2022-10-09T18:54:21.696Z,90.69
2022-10-09T18:56:49.325Z,90.82
2022-10-09T18:59:20.671Z,90.80
2022-10-09T19:01:48.448Z,90.79
2022-10-09T19:04:16.036Z,90.91
2022-10-09T19:06:43.591Z,90.75
2022-10-09T19:09:11.165Z,90.80
2022-10-09T19:11:38.712Z,90.91
2022-10-09T19:14:06.229Z,90.90
2022-10-09T19:16:35.540Z,90.91
2022-10-09T19:19:04.116Z,91.08
2022-10-09T19:21:31.846Z,91.07
2022-10-09T19:24:03.494Z,91.20
2022-10-09T19:26:33.047Z,91.09
2022-10-09T19:29:00.759Z,91.21
2022-10-09T19:31:28.318Z,91.25
2022-10-09T19:33:55.803Z,91.10
2022-10-09T19:36:23.282Z,91.15
2022-10-09T19:38:50.893Z,91.18
2022-10-09T19:41:18.443Z,91.30
2022-10-09T19:43:45.948Z,91.61
2022-10-09T19:46:17.707Z,91.66
2022-10-09T19:48:45.980Z,91.66
2022-10-09T19:51:16.639Z,91.69
2022-10-09T19:53:44.758Z,91.75
2022-10-09T19:56:21.570Z,91.80
2022-10-09T19:58:50.009Z,91.86
2022-10-09T20:01:22.401Z,91.91
2022-10-09T20:03:56.431Z,91.94
2022-10-09T20:06:24.142Z,91.94
2022-10-09T20:08:52.235Z,92.04
2022-10-09T20:11:23.038Z,91.99
2022-10-09T20:13:55.544Z,92.24
2022-10-09T20:16:24.990Z,92.41
2022-10-09T20:18:54.985Z,92.39
2022-10-09T20:21:22.760Z,92.40
2022-10-09T20:23:51.558Z,92.39
2022-10-09T20:26:21.482Z,92.43
2022-10-09T20:28:50.087Z,92.38
2022-10-09T20:31:23.124Z,92.48
2022-10-09T20:33:52.107Z,92.49
2022-10-09T20:36:35.384Z,92.48
2022-10-09T20:39:11.563Z,92.49
2022-10-09T20:41:41.294Z,92.58
2022-10-09T20:44:09.586Z,92.56
2022-10-09T20:46:38.634Z,92.50
2022-10-09T20:49:12.836Z,92.51
2022-10-09T20:51:41.483Z,92.58
2022-10-09T20:54:16.190Z,92.50
2022-10-09T20:56:46.745Z,92.64
2022-10-09T20:59:16.153Z,92.71
2022-10-09T21:01:43.877Z,92.68
2022-10-09T21:04:12.236Z,92.67
2022-10-09T21:06:39.652Z,92.64
2022-10-09T21:09:07.992Z,92.71
2022-10-09T21:11:35.704Z,92.72
2022-10-09T21:14:03.373Z,92.69
2022-10-09T21:16:31.002Z,92.69
2022-10-09T21:19:03.762Z,92.76
2022-10-09T21:21:32.671Z,92.74
2022-10-09T21:24:01.402Z,92.77
2022-10-09T21:26:31.524Z,92.81
2022-10-09T21:29:00.113Z,92.80
2022-10-09T21:31:30.943Z,92.72
2022-10-09T21:34:01.150Z,92.79
2022-10-09T21:36:37.359Z,92.74
2022-10-09T21:39:06.997Z,92.79
2022-10-09T21:41:36.271Z,92.70
2022-10-09T21:44:05.478Z,92.72
2022-10-09T21:46:34.600Z,92.66
2022-10-09T21:49:07.383Z,92.78
2022-10-09T21:51:35.230Z,92.76
2022-10-09T21:54:02.726Z,92.77
2022-10-09T21:56:30.215Z,92.73
2022-10-09T21:58:57.674Z,92.76
2022-10-09T22:01:25.312Z,92.64
2022-10-09T22:03:53.164Z,92.64
2022-10-09T22:06:20.647Z,92.64
2022-10-09T22:08:48.647Z,92.62
2022-10-09T22:11:17.033Z,92.69
2022-10-09T22:13:44.773Z,92.64
2022-10-09T22:16:15.506Z,92.66
2022-10-09T22:18:43.590Z,92.66
2022-10-09T22:21:15.523Z,92.69
2022-10-09T22:23:43.576Z,92.77
2022-10-09T22:26:18.861Z,92.73
2022-10-09T22:28:47.482Z,92.67
2022-10-09T22:31:23.400Z,92.61
2022-10-09T22:33:54.199Z,92.57
2022-10-09T22:36:25.150Z,92.46
2022-10-09T22:39:02.616Z,92.43
2022-10-09T22:41:31.235Z,92.43
2022-10-09T22:44:00.732Z,92.50
2022-10-09T22:46:35.523Z,92.58
2022-10-09T22:49:04.675Z,92.55
2022-10-09T22:51:32.240Z,92.58
2022-10-09T22:54:00.363Z,92.54
2022-10-09T22:56:38.648Z,92.60
2022-10-09T22:59:08.002Z,92.78
2022-10-09T23:01:40.727Z,92.64
2022-10-09T23:04:12.632Z,92.73
2022-10-09T23:06:41.572Z,92.70
2022-10-09T23:09:13.380Z,92.56
2022-10-09T23:11:41.935Z,92.62
2022-10-09T23:14:11.495Z,92.67
2022-10-09T23:16:39.388Z,92.44
2022-10-09T23:19:07.610Z,92.47
2022-10-09T23:21:38.771Z,92.42
2022-10-09T23:24:07.928Z,92.45
2022-10-09T23:26:37.005Z,92.74
2022-10-09T23:29:09.577Z,92.75
2022-10-09T23:31:37.113Z,92.75
2022-10-09T23:34:06.764Z,92.83
2022-10-09T23:36:34.979Z,92.89
2022-10-09T23:39:05.642Z,92.89
2022-10-09T23:41:33.453Z,93.01
2022-10-09T23:44:01.010Z,93.01
2022-10-09T23:46:33.789Z,92.99
2022-10-09T23:49:01.646Z,92.94
2022-10-09T23:51:30.099Z,93.02
2022-10-09T23:53:57.838Z,93.03
2022-10-09T23:56:29.443Z,93.03
2022-10-09T23:58:59.431Z,92.92
